Liberty, New York
Current Conditions -  °F | °C
As of 5:35 AM on Friday 21 Nov 2014 (Local Time) from KMSV Reporting Station
Clear Clear  
Wind Chill:   Ceiling: Unl
Heat Index: 18°   Visibility: 10mi
Dew Point: 10°   Wind: 8mph
Humidity: 73%   Direction: 280°W
Pressure: 30.04"   Gusts: NA
Location:  41.8°N, 74.75°W
Report Text: KMSV 211035Z AUTO 28007KT 10SM CLR M08/M12 A3004 RMK AO1
Loading
Personal Weather Stations






























Interactive Weather Map New forecast layout! Learn more

10-Day Weather Forecast

Advertisements
Track Severe Weather on mobile